Time;durP1;ratioP1;P1;durP2;ratioP2;P2;SDS_P1;SDS_P2;PMS_P1;PMS_P2;Temp;Humidity;BMP_temperature;BMP_pressure;BME280_temperature;BME280_humidity;BME280_pressure;Samples;Min_cycle;Max_cycle;Signal;HPM_P1;HPM_P2
2024/03/10 00:00:34;;;;;;;4.07;3.50;;;22.10;43.20;;;;;;10418389;28;20052;-60
2024/03/10 00:05:38;;;;;;;5.55;3.90;;;22.30;43.00;;;;;;10421179;28;20095;-57
2024/03/10 00:10:41;;;;;;;5.17;3.30;;;22.30;42.90;;;;;;10413519;28;20049;-58
2024/03/10 00:15:43;;;;;;;6.78;3.80;;;22.30;42.90;;;;;;10416088;28;20052;-56
2024/03/10 00:20:46;;;;;;;5.32;4.00;;;21.90;45.40;;;;;;10418792;28;19921;-53
2024/03/10 00:25:48;;;;;;;7.93;3.90;;;21.90;46.00;;;;;;10427705;28;20578;-59
2024/03/10 00:30:50;;;;;;;4.63;3.67;;;21.90;46.10;;;;;;10432848;28;20052;-56
2024/03/10 00:35:53;;;;;;;4.70;3.65;;;21.80;46.50;;;;;;10420377;28;20752;-58
2024/03/10 00:40:55;;;;;;;5.22;3.58;;;21.80;46.40;;;;;;10434096;28;20123;-60
2024/03/10 00:45:56;;;;;;;5.43;4.05;;;21.80;46.40;;;;;;10415993;28;20415;-60
2024/03/10 00:50:59;;;;;;;4.63;3.55;;;21.70;46.40;;;;;;10421700;28;20135;-57
2024/03/10 00:56:02;;;;;;;5.47;3.67;;;21.80;46.10;;;;;;10415821;28;20153;-59
2024/03/10 01:01:04;;;;;;;4.90;3.72;;;21.70;46.40;;;;;;10413208;28;20490;-59
2024/03/10 01:06:07;;;;;;;5.75;3.47;;;21.60;46.60;;;;;;10411622;28;20047;-57
2024/03/10 01:11:10;;;;;;;5.10;3.63;;;21.70;46.20;;;;;;10395133;28;20042;-60
2024/03/10 01:16:12;;;;;;;10.65;3.78;;;21.70;46.20;;;;;;10378810;28;20416;-59
2024/03/10 01:21:15;;;;;;;5.28;4.47;;;21.70;46.20;;;;;;10376710;28;20439;-60
2024/03/10 01:26:17;;;;;;;5.95;4.20;;;21.80;45.60;;;;;;10370810;28;20050;-59
2024/03/10 01:31:19;;;;;;;5.55;4.68;;;21.50;45.90;;;;;;10372593;28;20576;-58
2024/03/10 01:36:22;;;;;;;5.32;4.38;;;21.20;46.20;;;;;;10368067;28;20132;-56
2024/03/10 01:41:25;;;;;;;5.50;4.88;;;21.10;46.20;;;;;;10378820;28;20130;-56
2024/03/10 01:46:27;;;;;;;5.68;4.22;;;20.80;46.50;;;;;;10376930;28;20728;-58
2024/03/10 01:51:30;;;;;;;6.05;4.68;;;20.70;46.50;;;;;;10386281;28;20045;-56
2024/03/10 01:56:32;;;;;;;5.80;4.70;;;20.60;46.80;;;;;;10391090;28;20053;-56
2024/03/10 02:01:35;;;;;;;5.93;4.88;;;20.50;46.50;;;;;;10382100;28;20468;-58
2024/03/10 02:06:38;;;;;;;5.50;4.65;;;20.40;46.60;;;;;;10374245;28;20118;-57
2024/03/10 02:11:40;;;;;;;5.97;4.75;;;20.30;46.70;;;;;;10374257;28;20534;-60
2024/03/10 02:16:49;;;;;;;5.88;5.05;;;20.10;46.90;;;;;;10373231;28;20050;-58
2024/03/10 02:21:52;;;;;;;6.22;4.72;;;20.10;46.90;;;;;;10376888;28;20050;-59
2024/03/10 02:26:55;;;;;;;6.88;5.10;;;20.00;46.80;;;;;;10378055;28;20129;-59
2024/03/10 02:47:58;;;;;;;6.70;5.40;;;19.70;46.90;;;;;;10403019;28;20041;-62
2024/03/10 02:52:59;;;;;;;5.95;5.05;;;19.60;47.00;;;;;;10410728;28;20089;-60
2024/03/10 02:58:03;;;;;;;6.07;5.47;;;19.60;46.90;;;;;;10407999;28;20057;-61
2024/03/10 03:03:08;;;;;;;7.70;5.63;;;19.60;46.80;;;;;;10399445;28;20042;-61
2024/03/10 03:08:09;;;;;;;6.30;5.47;;;19.50;46.70;;;;;;10396493;28;20046;-59
2024/03/10 03:13:12;;;;;;;6.80;5.72;;;19.50;46.50;;;;;;10407250;28;20128;-61
2024/03/10 03:18:14;;;;;;;6.35;5.40;;;19.50;46.70;;;;;;10403235;28;20047;-59
2024/03/10 03:23:16;;;;;;;6.78;5.45;;;19.40;46.70;;;;;;10402527;28;20049;-59
2024/03/10 03:28:20;;;;;;;6.88;5.50;;;19.40;46.60;;;;;;10399663;28;20496;-60
2024/03/10 03:33:22;;;;;;;6.28;5.43;;;19.30;46.50;;;;;;10394018;28;20069;-61
2024/03/10 03:38:23;;;;;;;6.72;5.80;;;19.30;46.50;;;;;;10390472;28;20152;-60
2024/03/10 03:43:26;;;;;;;6.32;5.60;;;19.20;46.60;;;;;;10393650;28;20042;-59
2024/03/10 03:48:28;;;;;;;8.20;5.95;;;19.20;46.60;;;;;;10393058;28;20041;-59
2024/03/10 03:53:30;;;;;;;7.32;5.85;;;19.20;46.50;;;;;;10398593;28;20065;-57
2024/03/10 03:58:34;;;;;;;6.65;5.70;;;19.00;46.90;;;;;;10400403;28;20121;-59
2024/03/10 04:03:35;;;;;;;7.38;6.20;;;19.00;46.90;;;;;;10406314;28;20508;-60
2024/03/10 04:08:37;;;;;;;7.70;6.15;;;19.40;46.80;;;;;;10404767;28;20128;-61
2024/03/10 04:13:40;;;;;;;6.70;5.63;;;20.50;43.80;;;;;;10403864;28;20053;-61
2024/03/10 04:18:42;;;;;;;8.73;6.18;;;20.80;43.30;;;;;;10399986;28;20833;-60
2024/03/10 04:23:43;;;;;;;7.28;5.93;;;20.80;43.10;;;;;;10398573;28;20145;-60
2024/03/10 04:28:46;;;;;;;6.38;5.63;;;20.90;42.90;;;;;;10397597;28;20080;-59
2024/03/10 04:33:48;;;;;;;6.00;5.40;;;21.00;42.90;;;;;;10401382;28;20702;-60
2024/03/10 04:38:49;;;;;;;6.88;5.50;;;21.00;43.00;;;;;;10400327;28;20136;-56
2024/03/10 04:43:53;;;;;;;5.65;5.03;;;20.80;43.50;;;;;;10396719;28;20128;-60
2024/03/10 04:48:57;;;;;;;6.05;5.45;;;20.90;43.30;;;;;;10391775;28;20068;-58
2024/03/10 04:53:58;;;;;;;6.30;5.38;;;20.90;43.20;;;;;;10392835;28;20049;-62
2024/03/10 04:59:01;;;;;;;6.05;5.40;;;21.00;42.90;;;;;;10392075;28;20061;-60
2024/03/10 05:04:03;;;;;;;6.60;5.32;;;21.10;42.50;;;;;;10397113;28;20045;-61
2024/03/10 05:09:04;;;;;;;5.53;5.03;;;21.20;42.40;;;;;;10399118;28;20124;-58
2024/03/10 05:14:07;;;;;;;6.10;5.28;;;21.20;42.30;;;;;;10394517;28;20107;-60
2024/03/10 05:19:09;;;;;;;6.05;5.15;;;21.20;42.40;;;;;;10402027;28;20080;-61
2024/03/10 05:24:11;;;;;;;7.05;5.90;;;21.20;42.50;;;;;;10401350;28;20513;-60
2024/03/10 05:29:14;;;;;;;6.85;5.68;;;21.20;42.70;;;;;;10397917;28;20129;-60
2024/03/10 05:34:15;;;;;;;6.03;5.43;;;21.30;42.70;;;;;;10394094;28;20132;-59
2024/03/10 05:39:18;;;;;;;6.80;5.70;;;21.30;42.70;;;;;;10393476;28;20141;-58
2024/03/10 05:44:21;;;;;;;6.82;5.25;;;21.30;42.80;;;;;;10390964;28;20045;-60
2024/03/10 05:49:23;;;;;;;7.10;5.55;;;21.30;42.80;;;;;;10395412;28;20057;-60
2024/03/10 05:54:24;;;;;;;6.15;5.55;;;21.40;42.80;;;;;;10396720;28;20680;-61
2024/03/10 05:59:27;;;;;;;5.90;5.20;;;21.40;42.70;;;;;;10397197;28;20037;-60
2024/03/10 06:04:30;;;;;;;6.20;5.55;;;21.40;42.80;;;;;;10388353;28;20080;-60
2024/03/10 06:09:34;;;;;;;6.53;5.78;;;21.40;42.60;;;;;;10387105;28;20100;-60
2024/03/10 06:14:38;;;;;;;6.65;5.65;;;21.50;42.40;;;;;;10393385;28;20053;-61
2024/03/10 06:30:20;;;;;;;6.40;5.78;;;21.60;42.30;;;;;;10394221;28;20034;-58
2024/03/10 06:35:22;;;;;;;6.22;5.57;;;21.60;42.30;;;;;;10398698;28;20049;-61
2024/03/10 06:40:23;;;;;;;6.95;5.80;;;21.60;42.20;;;;;;10395067;28;20125;-59
2024/03/10 06:45:26;;;;;;;6.88;6.07;;;21.50;42.40;;;;;;10399443;28;20111;-55
2024/03/10 06:50:33;;;;;;;7.47;5.88;;;21.50;42.50;;;;;;10394095;28;20156;-58
2024/03/10 06:55:35;;;;;;;6.45;5.85;;;21.60;42.40;;;;;;10394476;28;20129;-60
2024/03/10 07:00:40;;;;;;;7.85;6.30;;;21.60;42.60;;;;;;10388087;28;20504;-58
2024/03/10 07:05:42;;;;;;;6.95;6.30;;;21.50;43.20;;;;;;10400504;28;20107;-60
2024/03/10 07:10:43;;;;;;;6.35;5.75;;;21.50;42.50;;;;;;10404222;28;20568;-59
2024/03/10 07:15:47;;;;;;;6.00;5.40;;;21.50;42.60;;;;;;10398381;28;20132;-58
2024/03/10 07:20:48;;;;;;;7.97;6.20;;;21.50;42.60;;;;;;10391567;28;20057;-60
2024/03/10 07:25:50;;;;;;;6.93;6.22;;;21.50;42.60;;;;;;10398248;28;20820;-58
2024/03/10 07:30:54;;;;;;;7.97;6.40;;;21.60;42.50;;;;;;10397447;28;20137;-60
2024/03/10 07:35:55;;;;;;;8.05;6.30;;;21.60;42.60;;;;;;10397352;28;20072;-60
2024/03/10 07:40:57;;;;;;;6.65;6.00;;;21.50;42.50;;;;;;10404630;28;20045;-56
2024/03/10 07:46:00;;;;;;;7.53;6.20;;;21.50;42.50;;;;;;10400736;28;20061;-60
2024/03/10 07:51:03;;;;;;;6.78;6.03;;;21.50;42.50;;;;;;10403345;28;20124;-59
2024/03/10 07:56:05;;;;;;;7.15;6.28;;;21.50;42.50;;;;;;10403152;28;20049;-60
2024/03/10 08:01:09;;;;;;;6.60;5.90;;;21.50;42.50;;;;;;10397477;28;20516;-60
2024/03/10 08:06:13;;;;;;;7.50;6.53;;;21.60;42.60;;;;;;10402171;28;20041;-58
2024/03/10 08:11:15;;;;;;;7.68;6.82;;;21.60;42.60;;;;;;10397416;28;20065;-60
2024/03/10 08:16:18;;;;;;;7.53;6.57;;;21.60;42.60;;;;;;10396191;28;20072;-59
2024/03/10 08:21:21;;;;;;;7.07;6.10;;;21.70;42.50;;;;;;10392859;28;20657;-60
2024/03/10 08:26:24;;;;;;;7.05;6.20;;;21.60;42.50;;;;;;10400232;28;20048;-60
2024/03/10 08:31:27;;;;;;;8.25;7.25;;;21.70;42.50;;;;;;10395995;28;20061;-59
2024/03/10 08:36:29;;;;;;;9.00;6.63;;;21.70;42.30;;;;;;10395620;28;20127;-58
2024/03/10 08:41:33;;;;;;;7.75;6.82;;;21.60;42.60;;;;;;10395145;28;20045;-58
2024/03/10 08:46:37;;;;;;;8.35;6.38;;;21.70;42.50;;;;;;10569320;22;20136;-55
2024/03/10 08:51:42;;;;;;;10.05;7.22;;;21.70;42.80;;;;;;10449688;28;20045;-60
2024/03/10 08:56:43;;;;;;;9.10;6.63;;;21.70;43.80;;;;;;10418021;28;20407;-58
2024/03/10 09:01:50;;;;;;;7.78;6.60;;;21.70;44.10;;;;;;10401969;28;20168;-56
2024/03/10 09:06:54;;;;;;;11.60;6.38;;;21.80;44.30;;;;;;10404888;28;20698;-60
2024/03/10 09:11:58;;;;;;;11.75;7.07;;;21.70;44.20;;;;;;10391412;28;20085;-58
2024/03/10 09:17:03;;;;;;;11.05;7.10;;;21.70;44.50;;;;;;10400167;28;20672;-60
2024/03/10 09:22:05;;;;;;;7.00;6.30;;;21.80;44.10;;;;;;10403034;28;20041;-59
2024/03/10 09:27:07;;;;;;;8.73;6.65;;;21.80;43.80;;;;;;10400970;28;20096;-59
2024/03/10 09:32:15;;;;;;;8.50;6.95;;;21.80;43.40;;;;;;10398117;28;20053;-57
2024/03/10 09:37:17;;;;;;;7.50;6.63;;;21.80;43.30;;;;;;10393009;28;20132;-57
2024/03/10 09:42:19;;;;;;;8.85;6.45;;;22.00;43.30;;;;;;10400104;28;20052;-58
2024/03/10 09:47:23;;;;;;;10.82;6.55;;;21.90;43.50;;;;;;10403450;28;20073;-58
2024/03/10 09:52:26;;;;;;;11.25;6.80;;;21.90;43.60;;;;;;10400417;28;20490;-60
2024/03/10 09:57:28;;;;;;;6.93;6.22;;;22.00;43.80;;;;;;10396960;28;20045;-60
2024/03/10 10:02:34;;;;;;;8.30;6.38;;;22.00;43.60;;;;;;10406006;28;20547;-59
2024/03/10 10:07:36;;;;;;;8.65;7.22;;;22.10;43.50;;;;;;10440592;28;20069;-64
2024/03/10 10:12:40;;;;;;;12.85;7.47;;;22.10;43.30;;;;;;10439324;28;20079;-60
2024/03/10 10:17:45;;;;;;;10.00;7.25;;;22.10;42.80;;;;;;10438981;28;20454;-56
2024/03/10 10:22:47;;;;;;;8.95;6.72;;;22.10;42.60;;;;;;10435769;28;20055;-57
2024/03/10 10:27:49;;;;;;;8.10;6.82;;;22.10;42.80;;;;;;10436051;28;20484;-60
2024/03/10 10:33:03;;;;;;;7.60;6.80;;;22.00;43.00;;;;;;10397921;28;20407;-59
2024/03/10 10:38:11;;;;;;;7.97;6.80;;;22.20;42.80;;;;;;10396286;28;20054;-56
2024/03/10 10:43:13;;;;;;;8.73;6.53;;;22.20;42.90;;;;;;10407081;28;20056;-59
2024/03/10 10:48:16;;;;;;;8.25;6.72;;;22.20;42.80;;;;;;10399722;28;20065;-60
2024/03/10 10:53:18;;;;;;;8.07;6.70;;;22.20;42.80;;;;;;10402562;28;20522;-60
2024/03/10 10:58:21;;;;;;;7.47;6.43;;;22.30;42.70;;;;;;10408681;28;20157;-60
2024/03/10 11:03:24;;;;;;;15.07;13.48;;;22.20;42.80;;;;;;10408004;28;20045;-60
2024/03/10 11:08:26;;;;;;;19.40;15.77;;;22.30;38.40;;;;;;10408128;28;20492;-61
2024/03/10 11:13:28;;;;;;;23.38;16.27;;;22.20;36.70;;;;;;10401006;28;20070;-60
2024/03/10 11:18:32;;;;;;;21.85;17.10;;;22.00;36.30;;;;;;10406712;28;20060;-61
2024/03/10 11:23:38;;;;;;;20.13;16.70;;;21.80;36.10;;;;;;10404595;28;20049;-61
2024/03/10 11:28:50;;;;;;;19.30;16.08;;;21.70;36.40;;;;;;10397565;28;20140;-55
2024/03/10 11:33:53;;;;;;;18.63;15.98;;;21.70;36.20;;;;;;10406532;28;20140;-57
2024/03/10 11:38:55;;;;;;;18.80;15.65;;;21.80;36.30;;;;;;10400163;28;20080;-59
2024/03/10 11:43:57;;;;;;;39.00;17.88;;;21.90;36.10;;;;;;10406712;28;20052;-61
2024/03/10 11:54:23;;;;;;;23.75;16.90;;;21.90;36.10;;;;;;10530710;27;20347;-61
2024/03/10 11:59:24;;;;;;;31.20;16.25;;;21.60;36.80;;;;;;10427177;28;20053;-57
2024/03/10 12:04:27;;;;;;;23.77;15.35;;;21.80;38.20;;;;;;10428779;28;20049;-58
2024/03/10 12:09:30;;;;;;;41.88;14.90;;;22.10;38.10;;;;;;10428245;28;20610;-55
2024/03/10 12:14:37;;;;;;;26.45;13.18;;;22.10;37.50;;;;;;10428969;28;20045;-60
2024/03/10 12:19:39;;;;;;;15.63;11.05;;;22.10;40.80;;;;;;10421481;28;20570;-62
2024/03/10 12:24:43;;;;;;;19.70;10.68;;;22.50;40.90;;;;;;10429239;28;20041;-62
2024/03/10 12:29:44;;;;;;;23.70;10.02;;;22.70;41.10;;;;;;10436569;28;20504;-56
2024/03/10 12:34:46;;;;;;;15.38;9.50;;;22.50;41.90;;;;;;10433184;28;20144;-59
2024/03/10 12:39:56;;;;;;;17.05;8.90;;;22.90;41.40;;;;;;10430748;28;20083;-59
2024/03/10 12:44:58;;;;;;;11.68;8.93;;;22.90;41.90;;;;;;10428004;28;20510;-63
2024/03/10 12:49:59;;;;;;;19.00;8.70;;;22.90;42.00;;;;;;10412921;28;20041;-61
2024/03/10 12:55:02;;;;;;;15.23;8.10;;;22.90;42.80;;;;;;10428242;28;20132;-61
2024/03/10 13:00:15;;;;;;;12.00;8.48;;;23.00;43.40;;;;;;10430942;28;20076;-62
2024/03/10 13:05:17;;;;;;;10.25;7.55;;;23.10;42.90;;;;;;10399388;28;20057;-59
2024/03/10 13:10:20;;;;;;;11.85;7.85;;;23.20;42.20;;;;;;10392249;28;20526;-60
2024/03/10 13:15:23;;;;;;;10.90;7.45;;;23.20;41.90;;;;;;10394494;28;20512;-62
2024/03/10 13:20:25;;;;;;;19.77;8.20;;;23.20;41.70;;;;;;10396814;28;20581;-60
2024/03/10 13:25:28;;;;;;;17.98;7.65;;;23.30;41.00;;;;;;10400126;28;20136;-60
2024/03/10 13:30:29;;;;;;;22.88;8.07;;;23.40;40.70;;;;;;10402980;28;20045;-63
2024/03/10 13:35:31;;;;;;;15.52;8.40;;;23.30;40.50;;;;;;10396062;28;20132;-61
2024/03/10 13:40:34;;;;;;;15.32;8.05;;;23.30;40.10;;;;;;10402471;28;20492;-62
2024/03/10 13:45:35;;;;;;;9.57;8.07;;;23.40;39.90;;;;;;10403020;28;20084;-62
2024/03/10 13:50:37;;;;;;;10.80;7.68;;;23.30;39.60;;;;;;10400369;28;20133;-59
2024/03/10 13:55:40;;;;;;;10.35;8.40;;;23.40;39.50;;;;;;10403008;28;20045;-59
2024/03/10 14:00:44;;;;;;;11.07;8.68;;;23.40;39.30;;;;;;10395494;28;20125;-58
2024/03/10 14:05:45;;;;;;;11.88;8.40;;;23.40;39.30;;;;;;10388025;28;20056;-60
2024/03/10 14:10:48;;;;;;;9.38;7.60;;;23.40;39.70;;;;;;10400875;28;20073;-62
2024/03/10 14:15:53;;;;;;;8.90;6.90;;;23.50;39.90;;;;;;10394513;28;20059;-63
2024/03/10 14:20:55;;;;;;;11.60;7.47;;;23.70;40.00;;;;;;10395585;28;20057;-62
2024/03/10 14:25:58;;;;;;;12.25;8.00;;;23.60;41.00;;;;;;10392078;28;20198;-62
2024/03/10 14:31:02;;;;;;;10.63;8.45;;;23.80;41.50;;;;;;10379296;28;20050;-62
2024/03/10 14:36:13;;;;;;;10.85;8.52;;;23.70;42.50;;;;;;10387707;28;20100;-61
2024/03/10 14:41:16;;;;;;;11.30;9.05;;;23.90;43.20;;;;;;10387773;28;20049;-62
2024/03/10 14:46:18;;;;;;;13.15;9.05;;;23.90;43.60;;;;;;10388537;28;20535;-59
2024/03/10 14:51:20;;;;;;;12.30;8.98;;;24.00;44.10;;;;;;10398224;28;20463;-60
2024/03/10 14:56:23;;;;;;;10.57;9.10;;;23.90;44.20;;;;;;10398938;28;20049;-59
2024/03/10 15:01:26;;;;;;;10.40;8.93;;;23.90;44.50;;;;;;10399207;28;20084;-62
2024/03/10 15:06:27;;;;;;;13.43;8.73;;;24.00;44.50;;;;;;10395971;28;20041;-61
2024/03/10 15:11:30;;;;;;;10.82;8.98;;;24.00;44.40;;;;;;10389476;28;20064;-62
2024/03/10 15:16:35;;;;;;;12.23;8.90;;;23.90;45.40;;;;;;10390043;28;20068;-62
2024/03/10 15:21:38;;;;;;;13.02;9.07;;;23.90;46.60;;;;;;10392227;28;20140;-62
2024/03/10 15:26:42;;;;;;;12.13;8.95;;;23.80;47.50;;;;;;10395762;28;20054;-63
2024/03/10 15:31:43;;;;;;;11.27;9.10;;;23.80;48.40;;;;;;10392864;28;20037;-62
2024/03/10 15:36:45;;;;;;;12.52;9.60;;;23.80;49.00;;;;;;10393095;28;20128;-62
2024/03/10 15:41:48;;;;;;;12.07;8.98;;;23.80;48.40;;;;;;10396012;28;20150;-61
2024/03/10 15:46:49;;;;;;;11.75;9.48;;;23.90;48.60;;;;;;10391424;28;20128;-62
2024/03/10 15:51:51;;;;;;;15.68;11.07;;;23.90;48.60;;;;;;10390362;28;20132;-64
2024/03/10 15:56:55;;;;;;;17.20;11.52;;;23.80;49.30;;;;;;10391244;28;20049;-63
2024/03/10 16:01:56;;;;;;;14.18;11.45;;;23.60;49.60;;;;;;10353704;28;20544;-65
2024/03/10 16:06:58;;;;;;;17.30;12.07;;;23.50;49.30;;;;;;10391855;28;20132;-62
2024/03/10 16:12:01;;;;;;;16.02;12.40;;;23.50;48.90;;;;;;10398530;28;20132;-63
2024/03/10 16:17:08;;;;;;;15.68;11.85;;;23.30;48.90;;;;;;10394238;28;20141;-63
2024/03/10 16:22:10;;;;;;;18.85;11.55;;;23.30;48.20;;;;;;10390589;28;20381;-64
2024/03/10 16:27:15;;;;;;;14.50;12.27;;;23.50;47.50;;;;;;10388868;28;20046;-61
2024/03/10 16:32:17;;;;;;;16.40;11.00;;;23.50;47.10;;;;;;10393283;28;20715;-63
2024/03/10 16:37:25;;;;;;;14.13;11.07;;;23.30;47.30;;;;;;10393619;28;20042;-62
2024/03/10 16:42:28;;;;;;;14.77;10.73;;;23.40;46.30;;;;;;10401390;28;20067;-62
2024/03/10 16:47:30;;;;;;;14.20;10.95;;;23.40;46.10;;;;;;10400382;28;20535;-63
2024/03/10 16:52:41;;;;;;;12.40;9.98;;;23.30;46.00;;;;;;10394008;28;20045;-63
2024/03/10 16:57:43;;;;;;;;;;;23.30;45.90;;;;;;10398629;28;20149;-64
2024/03/10 17:02:45;;;;;;;12.30;9.63;;;23.10;45.70;;;;;;10400401;28;20011;-62
2024/03/10 17:07:55;;;;;;;16.63;10.20;;;23.10;45.20;;;;;;10398302;28;20114;-62
2024/03/10 17:12:59;;;;;;;19.73;9.70;;;23.10;44.60;;;;;;10401719;28;20045;-62
2024/03/10 17:18:02;;;;;;;14.13;10.30;;;23.30;44.60;;;;;;10399424;28;20641;-60
2024/03/10 17:23:04;;;;;;;18.50;10.20;;;23.30;43.50;;;;;;10401432;28;20108;-61
2024/03/10 17:28:07;;;;;;;16.92;9.35;;;23.10;42.30;;;;;;10404414;28;20049;-60
2024/03/10 17:33:09;;;;;;;15.73;9.70;;;23.10;42.20;;;;;;10401949;28;20240;-63
2024/03/10 17:38:13;;;;;;;15.60;8.63;;;23.20;42.50;;;;;;10394008;28;20119;-63
2024/03/10 17:43:16;;;;;;;18.63;8.27;;;23.30;43.00;;;;;;10404629;28;20041;-63
2024/03/10 17:48:18;;;;;;;15.30;8.57;;;23.30;43.50;;;;;;10397904;28;20120;-63
2024/03/10 17:53:20;;;;;;;10.65;7.88;;;23.40;43.90;;;;;;10396432;28;20147;-62
2024/03/10 17:58:23;;;;;;;12.90;7.95;;;23.50;44.20;;;;;;10401718;28;20057;-64
2024/03/10 18:03:27;;;;;;;18.10;7.97;;;23.40;44.20;;;;;;10395141;28;20121;-59
2024/03/10 18:08:28;;;;;;;20.42;7.32;;;23.30;44.40;;;;;;10394936;28;20140;-63
2024/03/10 18:13:31;;;;;;;11.20;7.22;;;23.50;44.60;;;;;;10382597;28;20037;-65
2024/03/10 18:18:33;;;;;;;11.40;7.07;;;23.40;44.70;;;;;;10397340;28;20608;-61
2024/03/10 18:23:35;;;;;;;9.88;7.05;;;23.50;44.60;;;;;;10396045;28;20096;-64
2024/03/10 18:28:39;;;;;;;9.68;6.60;;;23.60;44.60;;;;;;10402842;28;20131;-64
2024/03/10 18:33:40;;;;;;;12.35;6.97;;;23.70;44.60;;;;;;10398936;28;20049;-64
2024/03/10 18:38:43;;;;;;;10.77;7.57;;;23.60;44.80;;;;;;10395370;28;20467;-64
2024/03/10 18:43:46;;;;;;;8.50;6.32;;;23.50;44.30;;;;;;10398697;28;20475;-63
2024/03/10 18:48:48;;;;;;;9.43;6.28;;;23.70;44.30;;;;;;10398275;28;20053;-62
2024/03/10 18:53:51;;;;;;;14.77;6.60;;;23.60;44.80;;;;;;10395436;28;20049;-63
2024/03/10 18:58:55;;;;;;;9.63;6.45;;;23.60;45.00;;;;;;10393913;28;20052;-63
2024/03/10 19:03:57;;;;;;;11.50;6.75;;;23.50;44.60;;;;;;10390084;28;20045;-63
2024/03/10 19:08:58;;;;;;;10.98;6.30;;;23.60;43.90;;;;;;10391156;28;20045;-63
2024/03/10 19:14:01;;;;;;;9.55;6.80;;;23.70;44.70;;;;;;10389148;28;20045;-61
2024/03/10 19:19:03;;;;;;;10.35;6.82;;;23.80;44.40;;;;;;10393294;28;20480;-63
2024/03/10 19:24:05;;;;;;;8.52;6.50;;;23.80;44.50;;;;;;10397567;28;20041;-63
2024/03/10 19:29:16;;;;;;;9.25;6.10;;;23.70;44.70;;;;;;10394613;28;20128;-62
2024/03/10 19:34:19;;;;;;;13.13;6.68;;;23.70;45.00;;;;;;10397251;28;20518;-62
2024/03/10 19:39:20;;;;;;;7.63;6.30;;;23.60;44.50;;;;;;10400205;28;20045;-63
2024/03/10 19:44:23;;;;;;;9.15;6.10;;;23.70;44.60;;;;;;10398202;28;20454;-62
2024/03/10 19:49:26;;;;;;;8.27;6.30;;;23.80;44.50;;;;;;10394462;28;20137;-62
2024/03/10 19:54:27;;;;;;;9.43;6.18;;;23.70;44.60;;;;;;10390069;28;20593;-60
2024/03/10 19:59:30;;;;;;;11.13;6.60;;;23.60;44.60;;;;;;10396015;28;20144;-59
2024/03/10 20:04:32;;;;;;;10.88;6.95;;;23.80;44.50;;;;;;10397257;28;20964;-62
2024/03/10 20:09:34;;;;;;;8.85;5.90;;;23.70;44.50;;;;;;10395002;28;20164;-60
2024/03/10 20:14:37;;;;;;;10.57;6.78;;;23.50;45.40;;;;;;10397591;28;20053;-61
2024/03/10 20:19:49;;;;;;;9.65;6.22;;;23.40;44.80;;;;;;10393592;28;20137;-63
2024/03/10 20:24:51;;;;;;;10.05;6.57;;;23.20;45.60;;;;;;10391627;28;20041;-63
2024/03/10 20:29:54;;;;;;;8.35;5.70;;;23.10;45.90;;;;;;10402410;28;20048;-63
2024/03/10 20:34:56;;;;;;;10.90;6.50;;;23.10;45.90;;;;;;10405048;28;20049;-62
2024/03/10 20:39:58;;;;;;;11.55;6.75;;;23.10;46.00;;;;;;10404903;28;20132;-61
2024/03/10 20:45:01;;;;;;;12.88;6.40;;;23.20;45.80;;;;;;10397050;28;20482;-62
2024/03/10 20:50:02;;;;;;;7.25;6.07;;;23.20;45.60;;;;;;10405279;28;20145;-62
2024/03/10 20:55:05;;;;;;;7.78;5.75;;;23.30;45.30;;;;;;10407329;28;20042;-60
2024/03/10 21:00:10;;;;;;;12.93;6.03;;;23.40;45.00;;;;;;10398190;28;20438;-64
2024/03/10 21:05:12;;;;;;;6.82;6.13;;;23.30;45.10;;;;;;10402230;28;20257;-59
2024/03/10 21:10:15;;;;;;;8.88;6.05;;;23.20;45.30;;;;;;10401157;28;20072;-62
2024/03/10 21:15:20;;;;;;;8.15;6.35;;;23.30;44.80;;;;;;10403202;28;20049;-59
2024/03/10 21:20:23;;;;;;;8.35;5.90;;;23.40;45.10;;;;;;10402519;28;20393;-62
2024/03/10 21:25:27;;;;;;;9.27;6.38;;;23.50;44.70;;;;;;10398730;28;20496;-62
2024/03/10 21:30:30;;;;;;;7.63;5.55;;;23.70;44.80;;;;;;10391935;28;20049;-60
2024/03/10 21:35:32;;;;;;;8.10;5.68;;;24.20;44.40;;;;;;10364580;28;20125;-62
2024/03/10 21:40:34;;;;;;;9.05;5.50;;;24.40;44.30;;;;;;10375050;28;20136;-59
2024/03/10 21:45:38;;;;;;;9.90;5.28;;;24.50;44.10;;;;;;10395449;28;20064;-62
2024/03/10 21:50:40;;;;;;;7.93;5.10;;;24.80;43.70;;;;;;10395772;28;20068;-63
2024/03/10 21:55:43;;;;;;;8.02;5.60;;;24.70;43.60;;;;;;10395920;28;20061;-62
2024/03/10 22:00:48;;;;;;;7.93;5.75;;;24.70;43.40;;;;;;10399769;28;20052;-58
2024/03/10 22:05:50;;;;;;;7.28;5.47;;;24.80;43.10;;;;;;10405672;28;20069;-64
2024/03/10 22:10:52;;;;;;;7.88;5.75;;;25.00;42.70;;;;;;10404948;28;20042;-60
2024/03/10 22:15:55;;;;;;;9.40;6.00;;;25.00;42.30;;;;;;10396418;28;20050;-59
2024/03/10 22:20:56;;;;;;;7.97;5.32;;;25.00;42.30;;;;;;10396234;28;20046;-59
2024/03/10 22:25:58;;;;;;;8.40;5.50;;;25.10;42.20;;;;;;10395157;28;20041;-62
2024/03/10 22:31:01;;;;;;;7.88;5.78;;;25.00;41.80;;;;;;10395812;28;20041;-62
2024/03/10 22:36:04;;;;;;;8.93;6.03;;;24.70;42.20;;;;;;10395949;28;20052;-61
2024/03/10 22:41:05;;;;;;;9.43;6.38;;;24.30;43.20;;;;;;10398364;28;20060;-60
2024/03/10 22:46:08;;;;;;;10.27;6.20;;;23.90;43.90;;;;;;10397029;28;20143;-59
2024/03/10 22:51:10;;;;;;;7.93;5.78;;;23.60;44.20;;;;;;10397801;28;20079;-62
2024/03/10 22:56:11;;;;;;;8.88;6.00;;;23.50;44.30;;;;;;10389757;28;20049;-60
2024/03/10 23:01:16;;;;;;;6.50;5.80;;;23.10;44.80;;;;;;10390109;28;20144;-61
2024/03/10 23:06:19;;;;;;;10.45;6.00;;;22.70;45.30;;;;;;10394032;28;20454;-62
2024/03/10 23:11:21;;;;;;;7.93;6.00;;;22.40;45.60;;;;;;10394103;28;20133;-62
2024/03/10 23:16:24;;;;;;;6.85;5.80;;;22.30;45.80;;;;;;10403875;28;20140;-60
2024/03/10 23:21:26;;;;;;;9.50;5.80;;;22.30;45.50;;;;;;10401951;28;20487;-62
2024/03/10 23:26:27;;;;;;;7.55;5.82;;;22.20;45.60;;;;;;10396379;28;20168;-63
2024/03/10 23:31:30;;;;;;;6.47;5.32;;;22.40;45.20;;;;;;10396218;28;20128;-62
2024/03/10 23:36:32;;;;;;;7.97;6.25;;;22.40;45.10;;;;;;10390748;28;20133;-62
2024/03/10 23:41:35;;;;;;;7.35;5.72;;;22.40;44.90;;;;;;10391765;28;20045;-62
2024/03/10 23:46:38;;;;;;;7.45;5.70;;;22.50;44.50;;;;;;10396832;28;20053;-61
2024/03/10 23:51:40;;;;;;;7.47;5.97;;;22.70;44.10;;;;;;10392670;28;20465;-60
2024/03/10 23:56:44;;;;;;;6.70;5.50;;;22.70;43.80;;;;;;10394845;28;20045;-60
